PWSweather.com
Personal Weather Stations
Station Observations
METEOC500
Santo Antonio, FunchalPT 2020

Santo AntonioFunchalPT 2020

Lat: 32.678227, Lon: -16.945054

Elevation: 1669.94751

Station Type: WH Series

High Low Average
Temperature 70.9°F21.6°C 58.5°F14.7°C 62.5°F16.9°C
Dew Point 60.6°F15.9°C 47.1°F8.4°C 55.3°F12.9°C
Winds 9.2 mph 14.8 kmh Calm Calm 3.0 mph SW4.8 kmh SW
Wind Gusts 17.4 mph28.0 kmh -- 9.0 mph14.5 kmh
Humidity 88% 56% 78%
Pressure 30.42 in1030.1 mb 30.33 in1027.1 mb -
Precipitation 0.00 in0.0 mm - -
Hour Temp Dew Point Humidity Winds Wind Gusts Pressure Precip Precip Rate Daily Precip Total
12:04 AM 60.8°F16.0°C 54.0°F12.2°C 78% Calm Calm 7.6 mph12.2 kmh 30.40 in1029.5 mb 0.00 in0.0 mm 0.00 in0.0 mm 0.00 in0.0 mm
12:19 AM 60.6°F15.9°C 53.8°F12.1°C 78% 1.3 mph N2.1 kmh N 2.5 mph4.0 kmh 30.39 in1029.1 mb 0.00 in0.0 mm 0.00 in0.0 mm 0.00 in0.0 mm
12:34 AM 60.6°F15.9°C 53.8°F12.1°C 78% 3.8 mph N6.1 kmh N 7.6 mph12.2 kmh 30.38 in1028.8 mb 0.00 in0.0 mm 0.00 in0.0 mm 0.00 in0.0 mm
12:49 AM 60.6°F15.9°C 53.8°F12.1°C 78% 3.1 mph E5.0 kmh E 10.1 mph16.3 kmh 30.38 in1028.8 mb 0.00 in0.0 mm 0.00 in0.0 mm 0.00 in0.0 mm
01:04 AM 60.6°F15.9°C 53.8°F12.1°C 78% Calm Calm 4.9 mph7.9 kmh 30.38 in1028.8 mb 0.00 in0.0 mm 0.00 in0.0 mm 0.00 in0.0 mm
01:19 AM 61.0°F16.1°C 54.1°F12.3°C 78% 6.0 mph NW9.7 kmh NW 10.1 mph16.3 kmh 30.39 in1029.1 mb 0.00 in0.0 mm 0.00 in0.0 mm 0.00 in0.0 mm
01:34 AM 61.0°F16.1°C 54.1°F12.3°C 78% 2.5 mph S4.0 kmh S 7.6 mph12.2 kmh 30.39 in1029.1 mb 0.00 in0.0 mm 0.00 in0.0 mm 0.00 in0.0 mm
01:49 AM 60.4°F15.8°C 54.3°F12.4°C 80% 0.7 mph WNW1.1 kmh WNW 7.6 mph12.2 kmh 30.38 in1028.8 mb 0.00 in0.0 mm 0.00 in0.0 mm 0.00 in0.0 mm
02:04 AM 60.1°F15.6°C 54.0°F12.2°C 80% Calm Calm 4.9 mph7.9 kmh 30.39 in1029.1 mb 0.00 in0.0 mm 0.00 in0.0 mm 0.00 in0.0 mm
02:20 AM 60.1°F15.6°C 54.0°F12.2°C 80% 3.1 mph NNW5.0 kmh NNW 7.6 mph12.2 kmh 30.38 in1028.8 mb 0.00 in0.0 mm 0.00 in0.0 mm 0.00 in0.0 mm
02:35 AM 60.1°F15.6°C 54.3°F12.4°C 81% 0.9 mph NW1.4 kmh NW 7.6 mph12.2 kmh 30.38 in1028.8 mb 0.00 in0.0 mm 0.00 in0.0 mm 0.00 in0.0 mm
02:50 AM 60.3°F15.7°C 54.3°F12.4°C 81% 4.0 mph NW6.4 kmh NW 7.6 mph12.2 kmh 30.37 in1028.4 mb 0.00 in0.0 mm 0.00 in0.0 mm 0.00 in0.0 mm
03:05 AM 60.1°F15.6°C 54.5°F12.5°C 82% 3.8 mph NNW6.1 kmh NNW 7.6 mph12.2 kmh 30.38 in1028.8 mb 0.00 in0.0 mm 0.00 in0.0 mm 0.00 in0.0 mm
03:20 AM 59.9°F15.5°C 54.1°F12.3°C 81% 1.6 mph NNW2.6 kmh NNW 4.9 mph7.9 kmh 30.37 in1028.4 mb 0.00 in0.0 mm 0.00 in0.0 mm 0.00 in0.0 mm
03:35 AM 59.9°F15.5°C 54.1°F12.3°C 81% Calm Calm 7.6 mph12.2 kmh 30.37 in1028.4 mb 0.00 in0.0 mm 0.00 in0.0 mm 0.00 in0.0 mm
03:50 AM 59.9°F15.5°C 54.1°F12.3°C 81% 2.9 mph NW4.7 kmh NW 10.1 mph16.3 kmh 30.37 in1028.4 mb 0.00 in0.0 mm 0.00 in0.0 mm 0.00 in0.0 mm
04:05 AM 59.5°F15.3°C 53.8°F12.1°C 81% 3.1 mph NW5.0 kmh NW 10.1 mph16.3 kmh 30.37 in1028.4 mb 0.00 in0.0 mm 0.00 in0.0 mm 0.00 in0.0 mm
04:20 AM 59.4°F15.2°C 53.8°F12.1°C 82% 1.3 mph NW2.1 kmh NW 7.6 mph12.2 kmh 30.37 in1028.4 mb 0.00 in0.0 mm 0.00 in0.0 mm 0.00 in0.0 mm
04:35 AM 59.2°F15.1°C 53.4°F11.9°C 81% 3.8 mph N6.1 kmh N 10.1 mph16.3 kmh 30.36 in1028.1 mb 0.00 in0.0 mm 0.00 in0.0 mm 0.00 in0.0 mm
04:50 AM 59.4°F15.2°C 53.6°F12.0°C 81% 2.2 mph NNW3.5 kmh NNW 10.1 mph16.3 kmh 30.37 in1028.4 mb 0.00 in0.0 mm 0.00 in0.0 mm 0.00 in0.0 mm
05:05 AM 59.7°F15.4°C 54.1°F12.3°C 82% 3.4 mph NNW5.5 kmh NNW 7.6 mph12.2 kmh 30.37 in1028.4 mb 0.00 in0.0 mm 0.00 in0.0 mm 0.00 in0.0 mm
05:20 AM 59.7°F15.4°C 54.5°F12.5°C 83% 3.1 mph NW5.0 kmh NW 7.6 mph12.2 kmh 30.37 in1028.4 mb 0.00 in0.0 mm 0.00 in0.0 mm 0.00 in0.0 mm
05:35 AM 59.4°F15.2°C 54.1°F12.3°C 83% 6.3 mph NNW10.1 kmh NNW 7.6 mph12.2 kmh 30.37 in1028.4 mb 0.00 in0.0 mm 0.00 in0.0 mm 0.00 in0.0 mm
05:50 AM 59.4°F15.2°C 54.1°F12.3°C 83% 4.7 mph NNW7.6 kmh NNW 10.1 mph16.3 kmh 30.37 in1028.4 mb 0.00 in0.0 mm 0.00 in0.0 mm 0.00 in0.0 mm
06:05 AM 59.4°F15.2°C 54.5°F12.5°C 84% Calm Calm 7.6 mph12.2 kmh 30.36 in1028.1 mb 0.00 in0.0 mm 0.00 in0.0 mm 0.00 in0.0 mm
06:20 AM 59.4°F15.2°C 54.9°F12.7°C 85% 2.5 mph ESE4.0 kmh ESE 4.9 mph7.9 kmh 30.37 in1028.4 mb 0.00 in0.0 mm 0.00 in0.0 mm 0.00 in0.0 mm
06:35 AM 59.4°F15.2°C 54.1°F12.3°C 83% Calm Calm 7.6 mph12.2 kmh 30.37 in1028.4 mb 0.00 in0.0 mm 0.00 in0.0 mm 0.00 in0.0 mm
06:50 AM 59.7°F15.4°C 54.5°F12.5°C 83% 0.9 mph NW1.4 kmh NW 7.6 mph12.2 kmh 30.37 in1028.4 mb 0.00 in0.0 mm 0.00 in0.0 mm 0.00 in0.0 mm
07:05 AM 60.1°F15.6°C 55.2°F12.9°C 84% Calm Calm 4.9 mph7.9 kmh 30.38 in1028.8 mb 0.00 in0.0 mm 0.00 in0.0 mm 0.00 in0.0 mm
07:20 AM 60.1°F15.6°C 55.2°F12.9°C 84% Calm Calm 7.6 mph12.2 kmh 30.39 in1029.1 mb 0.00 in0.0 mm 0.00 in0.0 mm 0.00 in0.0 mm
07:35 AM 60.3°F15.7°C 55.4°F13.0°C 84% Calm Calm 4.9 mph7.9 kmh 30.38 in1028.8 mb 0.00 in0.0 mm 0.00 in0.0 mm 0.00 in0.0 mm
07:51 AM 60.3°F15.7°C 55.8°F13.2°C 85% 1.8 mph NNW2.9 kmh NNW 7.6 mph12.2 kmh 30.39 in1029.1 mb 0.00 in0.0 mm 0.00 in0.0 mm 0.00 in0.0 mm
08:06 AM 60.3°F15.7°C 55.8°F13.2°C 85% Calm Calm 2.5 mph4.0 kmh 30.39 in1029.1 mb 0.00 in0.0 mm 0.00 in0.0 mm 0.00 in0.0 mm
08:21 AM 60.4°F15.8°C 56.3°F13.5°C 86% Calm Calm 2.5 mph4.0 kmh 30.40 in1029.5 mb 0.00 in0.0 mm 0.00 in0.0 mm 0.00 in0.0 mm
08:36 AM 60.4°F15.8°C 56.5°F13.6°C 87% 1.6 mph NNW2.6 kmh NNW 4.9 mph7.9 kmh 30.40 in1029.5 mb 0.00 in0.0 mm 0.00 in0.0 mm 0.00 in0.0 mm
08:51 AM 60.6°F15.9°C 56.7°F13.7°C 87% Calm Calm 4.9 mph7.9 kmh 30.40 in1029.5 mb 0.00 in0.0 mm 0.00 in0.0 mm 0.00 in0.0 mm
09:06 AM 61.0°F16.1°C 57.0°F13.9°C 87% Calm Calm 2.5 mph4.0 kmh 30.40 in1029.5 mb 0.00 in0.0 mm 0.00 in0.0 mm 0.00 in0.0 mm
09:21 AM 61.0°F16.1°C 57.4°F14.1°C 88% Calm Calm 2.5 mph4.0 kmh 30.41 in1029.8 mb 0.00 in0.0 mm 0.00 in0.0 mm 0.00 in0.0 mm
09:36 AM 61.2°F16.2°C 57.2°F14.0°C 87% Calm Calm -- 30.41 in1029.8 mb 0.00 in0.0 mm 0.00 in0.0 mm 0.00 in0.0 mm
09:51 AM 61.7°F16.5°C 56.5°F13.6°C 83% 4.0 mph S6.4 kmh S 7.6 mph12.2 kmh 30.41 in1029.8 mb 0.00 in0.0 mm 0.00 in0.0 mm 0.00 in0.0 mm
10:06 AM 62.2°F16.8°C 56.3°F13.5°C 81% 4.7 mph SSE7.6 kmh SSE 7.6 mph12.2 kmh 30.42 in1030.1 mb 0.00 in0.0 mm 0.00 in0.0 mm 0.00 in0.0 mm
10:21 AM 62.8°F17.1°C 56.5°F13.6°C 80% 0.9 mph ESE1.4 kmh ESE 7.6 mph12.2 kmh 30.42 in1030.1 mb 0.00 in0.0 mm 0.00 in0.0 mm 0.00 in0.0 mm
10:36 AM 64.4°F18.0°C 56.3°F13.5°C 75% 2.5 mph SE4.0 kmh SE 7.6 mph12.2 kmh 30.41 in1029.8 mb 0.00 in0.0 mm 0.00 in0.0 mm 0.00 in0.0 mm
10:51 AM 66.6°F19.2°C 56.5°F13.6°C 70% 0.7 mph SE1.1 kmh SE 7.6 mph12.2 kmh 30.42 in1030.1 mb 0.00 in0.0 mm 0.00 in0.0 mm 0.00 in0.0 mm
11:06 AM 67.6°F19.8°C 58.3°F14.6°C 72% 4.0 mph SSE6.4 kmh SSE 10.1 mph16.3 kmh 30.42 in1030.1 mb 0.00 in0.0 mm 0.00 in0.0 mm 0.00 in0.0 mm
11:21 AM 66.9°F19.4°C 58.3°F14.6°C 74% 1.3 mph SE2.1 kmh SE 12.5 mph20.1 kmh 30.41 in1029.8 mb 0.00 in0.0 mm 0.00 in0.0 mm 0.00 in0.0 mm
11:36 AM 66.0°F18.9°C 56.7°F13.7°C 72% 4.5 mph ESE7.2 kmh ESE 12.5 mph20.1 kmh 30.41 in1029.8 mb 0.00 in0.0 mm 0.00 in0.0 mm 0.00 in0.0 mm
11:51 AM 66.2°F19.0°C 57.2°F14.0°C 73% 6.9 mph SSE11.1 kmh SSE 10.1 mph16.3 kmh 30.40 in1029.5 mb 0.00 in0.0 mm 0.00 in0.0 mm 0.00 in0.0 mm
12:06 PM 66.9°F19.4°C 57.2°F14.0°C 71% 6.0 mph ESE9.7 kmh ESE 12.5 mph20.1 kmh 30.40 in1029.5 mb 0.00 in0.0 mm 0.00 in0.0 mm 0.00 in0.0 mm
12:21 PM 67.8°F19.9°C 57.7°F14.3°C 70% 2.2 mph SSE3.5 kmh SSE 12.5 mph20.1 kmh 30.39 in1029.1 mb 0.00 in0.0 mm 0.00 in0.0 mm 0.00 in0.0 mm
12:36 PM 67.8°F19.9°C 57.7°F14.3°C 70% 2.9 mph SSW4.7 kmh SSW 10.1 mph16.3 kmh 30.39 in1029.1 mb 0.00 in0.0 mm 0.00 in0.0 mm 0.00 in0.0 mm
12:51 PM 67.6°F19.8°C 57.9°F14.4°C 71% 2.9 mph S4.7 kmh S 12.5 mph20.1 kmh 30.38 in1028.8 mb 0.00 in0.0 mm 0.00 in0.0 mm 0.00 in0.0 mm
01:06 PM 67.5°F19.7°C 58.1°F14.5°C 72% 5.6 mph S9.0 kmh S 12.5 mph20.1 kmh 30.37 in1028.4 mb 0.00 in0.0 mm 0.00 in0.0 mm 0.00 in0.0 mm
01:21 PM 67.8°F19.9°C 58.5°F14.7°C 72% 4.7 mph ESE7.6 kmh ESE 15.0 mph24.1 kmh 30.37 in1028.4 mb 0.00 in0.0 mm 0.00 in0.0 mm 0.00 in0.0 mm
01:37 PM 68.0°F20.0°C 57.9°F14.4°C 70% 3.1 mph SSW5.0 kmh SSW 15.0 mph24.1 kmh 30.37 in1028.4 mb 0.00 in0.0 mm 0.00 in0.0 mm 0.00 in0.0 mm
01:52 PM 68.7°F20.4°C 57.7°F14.3°C 68% 2.5 mph ESE4.0 kmh ESE 10.1 mph16.3 kmh 30.37 in1028.4 mb 0.00 in0.0 mm 0.00 in0.0 mm 0.00 in0.0 mm
02:07 PM 69.4°F20.8°C 59.2°F15.1°C 70% 3.8 mph SE6.1 kmh SE 12.5 mph20.1 kmh 30.36 in1028.1 mb 0.00 in0.0 mm 0.00 in0.0 mm 0.00 in0.0 mm
02:22 PM 69.4°F20.8°C 59.2°F15.1°C 70% 6.3 mph S10.1 kmh S 12.5 mph20.1 kmh 30.36 in1028.1 mb 0.00 in0.0 mm 0.00 in0.0 mm 0.00 in0.0 mm
02:37 PM 69.3°F20.7°C 59.5°F15.3°C 71% 9.2 mph SSE14.8 kmh SSE 15.0 mph24.1 kmh 30.35 in1027.8 mb 0.00 in0.0 mm 0.00 in0.0 mm 0.00 in0.0 mm
02:52 PM 69.4°F20.8°C 59.5°F15.3°C 71% 3.4 mph SW5.5 kmh SW 12.5 mph20.1 kmh 30.35 in1027.8 mb 0.00 in0.0 mm 0.00 in0.0 mm 0.00 in0.0 mm
03:07 PM 69.6°F20.9°C 59.0°F15.0°C 69% 2.9 mph SSE4.7 kmh SSE 10.1 mph16.3 kmh 30.34 in1027.4 mb 0.00 in0.0 mm 0.00 in0.0 mm 0.00 in0.0 mm
03:22 PM 70.2°F21.2°C 53.8°F12.1°C 56% 1.3 mph SSW2.1 kmh SSW 7.6 mph12.2 kmh 30.34 in1027.4 mb 0.00 in0.0 mm 0.00 in0.0 mm 0.00 in0.0 mm
03:37 PM 70.9°F21.6°C 60.6°F15.9°C 70% 7.8 mph SE12.6 kmh SE 10.1 mph16.3 kmh 30.34 in1027.4 mb 0.00 in0.0 mm 0.00 in0.0 mm 0.00 in0.0 mm
03:52 PM 69.8°F21.0°C 59.9°F15.5°C 71% 2.2 mph SSW3.5 kmh SSW 10.1 mph16.3 kmh 30.33 in1027.1 mb 0.00 in0.0 mm 0.00 in0.0 mm 0.00 in0.0 mm
04:07 PM 68.7°F20.4°C 59.4°F15.2°C 72% 1.3 mph S2.1 kmh S 12.5 mph20.1 kmh 30.33 in1027.1 mb 0.00 in0.0 mm 0.00 in0.0 mm 0.00 in0.0 mm
04:22 PM 68.2°F20.1°C 59.2°F15.1°C 73% 5.6 mph SSE9.0 kmh SSE 10.1 mph16.3 kmh 30.33 in1027.1 mb 0.00 in0.0 mm 0.00 in0.0 mm 0.00 in0.0 mm
04:37 PM 67.1°F19.5°C 58.5°F14.7°C 74% 3.1 mph S5.0 kmh S 12.5 mph20.1 kmh 30.34 in1027.4 mb 0.00 in0.0 mm 0.00 in0.0 mm 0.00 in0.0 mm
04:52 PM 65.7°F18.7°C 57.9°F14.4°C 76% 1.3 mph S2.1 kmh S 7.6 mph12.2 kmh 30.35 in1027.8 mb 0.00 in0.0 mm 0.00 in0.0 mm 0.00 in0.0 mm
05:07 PM 64.9°F18.3°C 56.5°F13.6°C 74% 1.3 mph W2.1 kmh W 7.6 mph12.2 kmh 30.35 in1027.8 mb 0.00 in0.0 mm 0.00 in0.0 mm 0.00 in0.0 mm
05:22 PM 64.6°F18.1°C 57.9°F14.4°C 79% 8.5 mph S13.7 kmh S 10.1 mph16.3 kmh 30.35 in1027.8 mb 0.00 in0.0 mm 0.00 in0.0 mm 0.00 in0.0 mm
05:37 PM 64.2°F17.9°C 58.3°F14.6°C 81% 8.1 mph SW13.0 kmh SW 15.0 mph24.1 kmh 30.35 in1027.8 mb 0.00 in0.0 mm 0.00 in0.0 mm 0.00 in0.0 mm
05:52 PM 63.5°F17.5°C 56.1°F13.4°C 77% 4.0 mph SSW6.4 kmh SSW 17.4 mph28.0 kmh 30.36 in1028.1 mb 0.00 in0.0 mm 0.00 in0.0 mm 0.00 in0.0 mm
06:07 PM 63.3°F17.4°C 58.1°F14.5°C 83% Calm Calm 10.1 mph16.3 kmh 30.36 in1028.1 mb 0.00 in0.0 mm 0.00 in0.0 mm 0.00 in0.0 mm
06:22 PM 63.0°F17.2°C 57.7°F14.3°C 83% Calm Calm 4.9 mph7.9 kmh 30.36 in1028.1 mb 0.00 in0.0 mm 0.00 in0.0 mm 0.00 in0.0 mm
06:37 PM 62.6°F17.0°C 55.9°F13.3°C 79% 0.2 mph SW0.3 kmh SW 4.9 mph7.9 kmh 30.37 in1028.4 mb 0.00 in0.0 mm 0.00 in0.0 mm 0.00 in0.0 mm
06:52 PM 62.2°F16.8°C 55.2°F12.9°C 78% Calm Calm 2.5 mph4.0 kmh 30.36 in1028.1 mb 0.00 in0.0 mm 0.00 in0.0 mm 0.00 in0.0 mm
07:08 PM 61.9°F16.6°C 55.2°F12.9°C 79% 3.1 mph NNW5.0 kmh NNW 4.9 mph7.9 kmh 30.36 in1028.1 mb 0.00 in0.0 mm 0.00 in0.0 mm 0.00 in0.0 mm
07:23 PM 61.2°F16.2°C 54.9°F12.7°C 80% 0.2 mph NW0.3 kmh NW 4.9 mph7.9 kmh 30.36 in1028.1 mb 0.00 in0.0 mm 0.00 in0.0 mm 0.00 in0.0 mm
07:38 PM 60.3°F15.7°C 54.1°F12.3°C 80% 4.9 mph NNW7.9 kmh NNW 7.6 mph12.2 kmh 30.37 in1028.4 mb 0.00 in0.0 mm 0.00 in0.0 mm 0.00 in0.0 mm
07:53 PM 59.9°F15.5°C 53.8°F12.1°C 80% 4.9 mph NW7.9 kmh NW 12.5 mph20.1 kmh 30.37 in1028.4 mb 0.00 in0.0 mm 0.00 in0.0 mm 0.00 in0.0 mm
08:08 PM 59.9°F15.5°C 54.3°F12.4°C 82% 6.5 mph NNW10.5 kmh NNW 10.1 mph16.3 kmh 30.37 in1028.4 mb 0.00 in0.0 mm 0.00 in0.0 mm 0.00 in0.0 mm
08:23 PM 59.7°F15.4°C 54.5°F12.5°C 83% 2.5 mph NNW4.0 kmh NNW 7.6 mph12.2 kmh 30.38 in1028.8 mb 0.00 in0.0 mm 0.00 in0.0 mm 0.00 in0.0 mm
08:38 PM 59.5°F15.3°C 54.0°F12.2°C 82% 6.0 mph N9.7 kmh N 10.1 mph16.3 kmh 30.38 in1028.8 mb 0.00 in0.0 mm 0.00 in0.0 mm 0.00 in0.0 mm
08:53 PM 59.5°F15.3°C 54.0°F12.2°C 82% Calm Calm 7.6 mph12.2 kmh 30.39 in1029.1 mb 0.00 in0.0 mm 0.00 in0.0 mm 0.00 in0.0 mm
09:08 PM 59.5°F15.3°C 53.8°F12.1°C 81% 4.9 mph NNW7.9 kmh NNW 10.1 mph16.3 kmh 30.40 in1029.5 mb 0.00 in0.0 mm 0.00 in0.0 mm 0.00 in0.0 mm
09:23 PM 59.9°F15.5°C 49.3°F9.6°C 68% 6.5 mph NNE10.5 kmh NNE 10.1 mph16.3 kmh 30.40 in1029.5 mb 0.00 in0.0 mm 0.00 in0.0 mm 0.00 in0.0 mm
09:38 PM 60.4°F15.8°C 52.9°F11.6°C 76% 5.4 mph NW8.7 kmh NW 10.1 mph16.3 kmh 30.40 in1029.5 mb 0.00 in0.0 mm 0.00 in0.0 mm 0.00 in0.0 mm
09:53 PM 59.9°F15.5°C 52.0°F11.1°C 75% 1.8 mph WNW2.9 kmh WNW 10.1 mph16.3 kmh 30.41 in1029.8 mb 0.00 in0.0 mm 0.00 in0.0 mm 0.00 in0.0 mm
10:08 PM 59.2°F15.1°C 50.9°F10.5°C 74% 4.0 mph NNW6.4 kmh NNW 10.1 mph16.3 kmh 30.42 in1030.1 mb 0.00 in0.0 mm 0.00 in0.0 mm 0.00 in0.0 mm
10:23 PM 59.0°F15.0°C 50.4°F10.2°C 73% 4.5 mph NNW7.2 kmh NNW 7.6 mph12.2 kmh 30.42 in1030.1 mb 0.00 in0.0 mm 0.00 in0.0 mm 0.00 in0.0 mm
10:38 PM 58.8°F14.9°C 50.2°F10.1°C 73% 4.0 mph NNW6.4 kmh NNW 7.6 mph12.2 kmh 30.42 in1030.1 mb 0.00 in0.0 mm 0.00 in0.0 mm 0.00 in0.0 mm
10:53 PM 58.8°F14.9°C 50.9°F10.5°C 75% 4.5 mph NW7.2 kmh NW 10.1 mph16.3 kmh 30.42 in1030.1 mb 0.00 in0.0 mm 0.00 in0.0 mm 0.00 in0.0 mm
11:08 PM 59.2°F15.1°C 51.3°F10.7°C 75% 2.5 mph NNW4.0 kmh NNW 10.1 mph16.3 kmh 30.42 in1030.1 mb 0.00 in0.0 mm 0.00 in0.0 mm 0.00 in0.0 mm
11:23 PM 59.0°F15.0°C 50.0°F10.0°C 72% 6.3 mph NNW10.1 kmh NNW 7.6 mph12.2 kmh 30.42 in1030.1 mb 0.00 in0.0 mm 0.00 in0.0 mm 0.00 in0.0 mm
11:38 PM 58.5°F14.7°C 49.1°F9.5°C 71% 6.3 mph NNW10.1 kmh NNW 12.5 mph20.1 kmh 30.41 in1029.8 mb 0.00 in0.0 mm 0.00 in0.0 mm 0.00 in0.0 mm
11:53 PM 58.5°F14.7°C 47.1°F8.4°C 66% 4.9 mph NNW7.9 kmh NNW 10.1 mph16.3 kmh 30.41 in1029.8 mb 0.00 in0.0 mm 0.00 in0.0 mm 0.00 in0.0 mm